sensor_id;sensor_type;location;lat;lon;timestamp;P1;durP1;ratioP1;P2;durP2;ratioP2
11767;SDS011;5941;57.652;12.514;2022-11-18T00:00:30;0.83;;;0.63;;
11767;SDS011;5941;57.652;12.514;2022-11-18T00:02:56;0.30;;;0.30;;
11767;SDS011;5941;57.652;12.514;2022-11-18T00:05:22;0.20;;;0.20;;
11767;SDS011;5941;57.652;12.514;2022-11-18T00:07:48;0.20;;;0.20;;
11767;SDS011;5941;57.652;12.514;2022-11-18T00:10:14;0.10;;;0.10;;
11767;SDS011;5941;57.652;12.514;2022-11-18T00:12:40;0.20;;;0.20;;
11767;SDS011;5941;57.652;12.514;2022-11-18T00:15:25;0.30;;;0.20;;
11767;SDS011;5941;57.652;12.514;2022-11-18T00:17:51;0.20;;;0.20;;
11767;SDS011;5941;57.652;12.514;2022-11-18T00:20:17;0.23;;;0.20;;
11767;SDS011;5941;57.652;12.514;2022-11-18T00:22:44;0.10;;;0.10;;
11767;SDS011;5941;57.652;12.514;2022-11-18T00:25:10;0.20;;;0.20;;
11767;SDS011;5941;57.652;12.514;2022-11-18T00:27:36;0.20;;;0.20;;
11767;SDS011;5941;57.652;12.514;2022-11-18T00:30:02;0.10;;;0.10;;
11767;SDS011;5941;57.652;12.514;2022-11-18T00:32:28;0.10;;;0.10;;
11767;SDS011;5941;57.652;12.514;2022-11-18T00:34:54;0.20;;;0.20;;
11767;SDS011;5941;57.652;12.514;2022-11-18T00:37:20;0.40;;;0.30;;
11767;SDS011;5941;57.652;12.514;2022-11-18T00:39:46;0.47;;;0.47;;
11767;SDS011;5941;57.652;12.514;2022-11-18T00:42:12;0.77;;;0.20;;
11767;SDS011;5941;57.652;12.514;2022-11-18T00:44:57;0.27;;;0.20;;
11767;SDS011;5941;57.652;12.514;2022-11-18T00:47:23;0.20;;;0.20;;
11767;SDS011;5941;57.652;12.514;2022-11-18T00:49:49;0.23;;;0.23;;
11767;SDS011;5941;57.652;12.514;2022-11-18T00:52:15;1.27;;;0.20;;
11767;SDS011;5941;57.652;12.514;2022-11-18T00:54:41;0.20;;;0.20;;
11767;SDS011;5941;57.652;12.514;2022-11-18T00:57:07;0.30;;;0.30;;
11767;SDS011;5941;57.652;12.514;2022-11-18T00:59:33;0.20;;;0.20;;
11767;SDS011;5941;57.652;12.514;2022-11-18T01:01:59;0.10;;;0.10;;
11767;SDS011;5941;57.652;12.514;2022-11-18T01:04:25;0.20;;;0.20;;
11767;SDS011;5941;57.652;12.514;2022-11-18T01:06:51;0.20;;;0.20;;
11767;SDS011;5941;57.652;12.514;2022-11-18T01:09:17;0.10;;;0.10;;
11767;SDS011;5941;57.652;12.514;2022-11-18T01:11:43;0.77;;;0.20;;
11767;SDS011;5941;57.652;12.514;2022-11-18T01:14:27;0.20;;;0.20;;
11767;SDS011;5941;57.652;12.514;2022-11-18T01:16:56;0.40;;;0.40;;
11767;SDS011;5941;57.652;12.514;2022-11-18T01:19:23;0.30;;;0.30;;
11767;SDS011;5941;57.652;12.514;2022-11-18T01:21:49;0.20;;;0.20;;
11767;SDS011;5941;57.652;12.514;2022-11-18T01:24:15;0.20;;;0.20;;
11767;SDS011;5941;57.652;12.514;2022-11-18T01:26:41;0.10;;;0.10;;
11767;SDS011;5941;57.652;12.514;2022-11-18T01:29:07;0.33;;;0.23;;
11767;SDS011;5941;57.652;12.514;2022-11-18T01:31:33;0.40;;;0.30;;
11767;SDS011;5941;57.652;12.514;2022-11-18T01:33:58;0.30;;;0.17;;
11767;SDS011;5941;57.652;12.514;2022-11-18T01:36:25;0.30;;;0.30;;
11767;SDS011;5941;57.652;12.514;2022-11-18T01:38:52;0.20;;;0.20;;
11767;SDS011;5941;57.652;12.514;2022-11-18T01:41:18;0.30;;;0.30;;
11767;SDS011;5941;57.652;12.514;2022-11-18T01:43:58;1.37;;;0.30;;
11767;SDS011;5941;57.652;12.514;2022-11-18T01:46:26;0.30;;;0.20;;
11767;SDS011;5941;57.652;12.514;2022-11-18T01:48:57;0.23;;;0.23;;
11767;SDS011;5941;57.652;12.514;2022-11-18T01:51:28;0.10;;;0.10;;
11767;SDS011;5941;57.652;12.514;2022-11-18T01:53:57;0.30;;;0.20;;
11767;SDS011;5941;57.652;12.514;2022-11-18T01:56:26;0.17;;;0.17;;
11767;SDS011;5941;57.652;12.514;2022-11-18T01:58:54;0.13;;;0.13;;
11767;SDS011;5941;57.652;12.514;2022-11-18T02:01:21;0.23;;;0.20;;
11767;SDS011;5941;57.652;12.514;2022-11-18T02:03:47;0.20;;;0.20;;
11767;SDS011;5941;57.652;12.514;2022-11-18T02:06:14;0.37;;;0.37;;
11767;SDS011;5941;57.652;12.514;2022-11-18T02:08:40;0.20;;;0.20;;
11767;SDS011;5941;57.652;12.514;2022-11-18T02:11:13;0.20;;;0.20;;
11767;SDS011;5941;57.652;12.514;2022-11-18T02:13:59;0.20;;;0.20;;
11767;SDS011;5941;57.652;12.514;2022-11-18T02:16:29;0.30;;;0.30;;
11767;SDS011;5941;57.652;12.514;2022-11-18T02:19:03;0.20;;;0.20;;
11767;SDS011;5941;57.652;12.514;2022-11-18T02:29:09;1.17;;;0.20;;
11767;SDS011;5941;57.652;12.514;2022-11-18T02:31:40;0.10;;;0.10;;
11767;SDS011;5941;57.652;12.514;2022-11-18T02:36:54;0.43;;;0.17;;
11767;SDS011;5941;57.652;12.514;2022-11-18T02:39:24;0.30;;;0.30;;
11767;SDS011;5941;57.652;12.514;2022-11-18T02:41:54;0.30;;;0.30;;
11767;SDS011;5941;57.652;12.514;2022-11-18T02:44:21;0.43;;;0.10;;
11767;SDS011;5941;57.652;12.514;2022-11-18T02:46:50;0.20;;;0.20;;
11767;SDS011;5941;57.652;12.514;2022-11-18T02:49:19;0.20;;;0.20;;
11767;SDS011;5941;57.652;12.514;2022-11-18T02:51:47;0.50;;;0.40;;
11767;SDS011;5941;57.652;12.514;2022-11-18T02:54:14;0.63;;;0.30;;
11767;SDS011;5941;57.652;12.514;2022-11-18T02:56:41;0.20;;;0.20;;
11767;SDS011;5941;57.652;12.514;2022-11-18T02:59:08;0.57;;;0.20;;
11767;SDS011;5941;57.652;12.514;2022-11-18T03:01:34;0.20;;;0.20;;
11767;SDS011;5941;57.652;12.514;2022-11-18T03:04:01;0.37;;;0.20;;
11767;SDS011;5941;57.652;12.514;2022-11-18T03:11:28;0.30;;;0.30;;
11767;SDS011;5941;57.652;12.514;2022-11-18T03:17:01;0.33;;;0.30;;
11767;SDS011;5941;57.652;12.514;2022-11-18T03:24:29;0.20;;;0.20;;
11767;SDS011;5941;57.652;12.514;2022-11-18T03:27:08;0.30;;;0.30;;
11767;SDS011;5941;57.652;12.514;2022-11-18T03:29:37;0.30;;;0.30;;
11767;SDS011;5941;57.652;12.514;2022-11-18T03:32:09;1.43;;;0.40;;
11767;SDS011;5941;57.652;12.514;2022-11-18T03:34:37;0.40;;;0.40;;
11767;SDS011;5941;57.652;12.514;2022-11-18T03:37:06;0.30;;;0.30;;
11767;SDS011;5941;57.652;12.514;2022-11-18T03:39:33;1.90;;;0.20;;
11767;SDS011;5941;57.652;12.514;2022-11-18T03:42:05;0.27;;;0.27;;
11767;SDS011;5941;57.652;12.514;2022-11-18T03:44:33;0.30;;;0.30;;
11767;SDS011;5941;57.652;12.514;2022-11-18T03:47:05;0.73;;;0.40;;
11767;SDS011;5941;57.652;12.514;2022-11-18T03:49:35;0.40;;;0.40;;
11767;SDS011;5941;57.652;12.514;2022-11-18T03:52:05;0.50;;;0.50;;
11767;SDS011;5941;57.652;12.514;2022-11-18T03:54:32;0.40;;;0.40;;
11767;SDS011;5941;57.652;12.514;2022-11-18T03:57:03;0.50;;;0.50;;
11767;SDS011;5941;57.652;12.514;2022-11-18T03:59:37;0.33;;;0.33;;
11767;SDS011;5941;57.652;12.514;2022-11-18T04:02:07;0.40;;;0.40;;
11767;SDS011;5941;57.652;12.514;2022-11-18T04:04:36;1.33;;;0.30;;
11767;SDS011;5941;57.652;12.514;2022-11-18T04:07:04;0.40;;;0.40;;
11767;SDS011;5941;57.652;12.514;2022-11-18T04:09:48;0.60;;;0.60;;
11767;SDS011;5941;57.652;12.514;2022-11-18T04:12:16;0.30;;;0.30;;
11767;SDS011;5941;57.652;12.514;2022-11-18T04:14:44;0.80;;;0.60;;
11767;SDS011;5941;57.652;12.514;2022-11-18T04:17:15;0.87;;;0.60;;
11767;SDS011;5941;57.652;12.514;2022-11-18T04:19:41;0.40;;;0.40;;
11767;SDS011;5941;57.652;12.514;2022-11-18T04:22:07;0.77;;;0.60;;
11767;SDS011;5941;57.652;12.514;2022-11-18T04:24:34;0.60;;;0.60;;
11767;SDS011;5941;57.652;12.514;2022-11-18T04:27:00;0.40;;;0.40;;
11767;SDS011;5941;57.652;12.514;2022-11-18T04:29:26;0.50;;;0.50;;
11767;SDS011;5941;57.652;12.514;2022-11-18T04:31:52;0.50;;;0.50;;
11767;SDS011;5941;57.652;12.514;2022-11-18T04:34:18;0.97;;;0.63;;
11767;SDS011;5941;57.652;12.514;2022-11-18T04:36:44;0.57;;;0.57;;
11767;SDS011;5941;57.652;12.514;2022-11-18T04:39:10;0.50;;;0.50;;
11767;SDS011;5941;57.652;12.514;2022-11-18T04:41:36;0.53;;;0.50;;
11767;SDS011;5941;57.652;12.514;2022-11-18T04:44:21;0.43;;;0.43;;
11767;SDS011;5941;57.652;12.514;2022-11-18T04:46:47;1.30;;;0.50;;
11767;SDS011;5941;57.652;12.514;2022-11-18T04:49:14;0.60;;;0.60;;
11767;SDS011;5941;57.652;12.514;2022-11-18T04:51:40;0.50;;;0.40;;
11767;SDS011;5941;57.652;12.514;2022-11-18T04:54:07;0.60;;;0.60;;
11767;SDS011;5941;57.652;12.514;2022-11-18T04:56:33;0.70;;;0.60;;
11767;SDS011;5941;57.652;12.514;2022-11-18T04:59:00;0.60;;;0.60;;
11767;SDS011;5941;57.652;12.514;2022-11-18T05:01:26;0.80;;;0.57;;
11767;SDS011;5941;57.652;12.514;2022-11-18T05:03:53;0.73;;;0.60;;
11767;SDS011;5941;57.652;12.514;2022-11-18T05:06:19;0.60;;;0.60;;
11767;SDS011;5941;57.652;12.514;2022-11-18T05:08:45;1.27;;;0.50;;
11767;SDS011;5941;57.652;12.514;2022-11-18T05:11:11;0.90;;;0.60;;
11767;SDS011;5941;57.652;12.514;2022-11-18T05:13:56;0.60;;;0.50;;
11767;SDS011;5941;57.652;12.514;2022-11-18T05:16:22;0.70;;;0.50;;
11767;SDS011;5941;57.652;12.514;2022-11-18T05:18:48;0.47;;;0.47;;
11767;SDS011;5941;57.652;12.514;2022-11-18T05:21:13;1.00;;;0.50;;
11767;SDS011;5941;57.652;12.514;2022-11-18T05:23:39;0.70;;;0.70;;
11767;SDS011;5941;57.652;12.514;2022-11-18T05:26:06;0.63;;;0.60;;
11767;SDS011;5941;57.652;12.514;2022-11-18T05:28:32;0.60;;;0.50;;
11767;SDS011;5941;57.652;12.514;2022-11-18T05:30:58;0.60;;;0.50;;
11767;SDS011;5941;57.652;12.514;2022-11-18T05:33:24;0.50;;;0.50;;
11767;SDS011;5941;57.652;12.514;2022-11-18T05:35:50;1.27;;;0.50;;
11767;SDS011;5941;57.652;12.514;2022-11-18T05:38:16;0.57;;;0.50;;
11767;SDS011;5941;57.652;12.514;2022-11-18T05:40:42;0.63;;;0.63;;
11767;SDS011;5941;57.652;12.514;2022-11-18T05:43:08;1.07;;;0.53;;
11767;SDS011;5941;57.652;12.514;2022-11-18T05:45:35;0.93;;;0.50;;
11767;SDS011;5941;57.652;12.514;2022-11-18T05:48:01;0.47;;;0.47;;
11767;SDS011;5941;57.652;12.514;2022-11-18T05:50:28;0.50;;;0.50;;
11767;SDS011;5941;57.652;12.514;2022-11-18T05:52:54;1.17;;;0.70;;
11767;SDS011;5941;57.652;12.514;2022-11-18T05:55:21;0.60;;;0.60;;
11767;SDS011;5941;57.652;12.514;2022-11-18T05:57:49;1.33;;;0.47;;
11767;SDS011;5941;57.652;12.514;2022-11-18T06:00:15;0.60;;;0.60;;
11767;SDS011;5941;57.652;12.514;2022-11-18T06:02:41;0.77;;;0.60;;
11767;SDS011;5941;57.652;12.514;2022-11-18T06:05:08;0.60;;;0.50;;
11767;SDS011;5941;57.652;12.514;2022-11-18T06:07:41;0.40;;;0.40;;
11767;SDS011;5941;57.652;12.514;2022-11-18T06:10:09;0.83;;;0.80;;
11767;SDS011;5941;57.652;12.514;2022-11-18T06:12:38;0.80;;;0.70;;
11767;SDS011;5941;57.652;12.514;2022-11-18T06:15:08;0.93;;;0.53;;
11767;SDS011;5941;57.652;12.514;2022-11-18T06:17:37;0.50;;;0.50;;
11767;SDS011;5941;57.652;12.514;2022-11-18T06:20:04;0.57;;;0.50;;
11767;SDS011;5941;57.652;12.514;2022-11-18T06:22:31;0.57;;;0.43;;
11767;SDS011;5941;57.652;12.514;2022-11-18T06:24:58;0.73;;;0.50;;
11767;SDS011;5941;57.652;12.514;2022-11-18T06:27:25;0.50;;;0.47;;
11767;SDS011;5941;57.652;12.514;2022-11-18T06:29:51;0.47;;;0.40;;
11767;SDS011;5941;57.652;12.514;2022-11-18T06:32:16;0.60;;;0.60;;
11767;SDS011;5941;57.652;12.514;2022-11-18T06:34:42;0.30;;;0.30;;
11767;SDS011;5941;57.652;12.514;2022-11-18T06:37:12;0.73;;;0.60;;
11767;SDS011;5941;57.652;12.514;2022-11-18T06:39:39;0.53;;;0.53;;
11767;SDS011;5941;57.652;12.514;2022-11-18T06:42:05;0.70;;;0.57;;
11767;SDS011;5941;57.652;12.514;2022-11-18T06:44:31;0.50;;;0.50;;
11767;SDS011;5941;57.652;12.514;2022-11-18T06:46:56;1.33;;;0.60;;
11767;SDS011;5941;57.652;12.514;2022-11-18T06:49:23;1.30;;;0.80;;
11767;SDS011;5941;57.652;12.514;2022-11-18T06:51:50;0.63;;;0.57;;
11767;SDS011;5941;57.652;12.514;2022-11-18T06:54:16;0.87;;;0.53;;
11767;SDS011;5941;57.652;12.514;2022-11-18T06:56:42;0.47;;;0.47;;
11767;SDS011;5941;57.652;12.514;2022-11-18T06:59:08;1.57;;;0.57;;
11767;SDS011;5941;57.652;12.514;2022-11-18T07:01:34;1.47;;;0.60;;
11767;SDS011;5941;57.652;12.514;2022-11-18T07:04:01;1.30;;;0.70;;
11767;SDS011;5941;57.652;12.514;2022-11-18T07:06:28;1.63;;;1.00;;
11767;SDS011;5941;57.652;12.514;2022-11-18T07:08:54;1.17;;;0.80;;
11767;SDS011;5941;57.652;12.514;2022-11-18T07:11:24;1.23;;;1.00;;
11767;SDS011;5941;57.652;12.514;2022-11-18T07:13:50;1.17;;;0.93;;
11767;SDS011;5941;57.652;12.514;2022-11-18T07:16:18;0.70;;;0.70;;
11767;SDS011;5941;57.652;12.514;2022-11-18T07:18:45;1.43;;;1.00;;
11767;SDS011;5941;57.652;12.514;2022-11-18T07:21:29;1.20;;;0.90;;
11767;SDS011;5941;57.652;12.514;2022-11-18T07:23:55;1.07;;;0.93;;
11767;SDS011;5941;57.652;12.514;2022-11-18T07:26:21;2.70;;;1.00;;
11767;SDS011;5941;57.652;12.514;2022-11-18T07:28:47;1.67;;;1.00;;
11767;SDS011;5941;57.652;12.514;2022-11-18T07:31:17;1.57;;;0.87;;
11767;SDS011;5941;57.652;12.514;2022-11-18T07:33:44;1.63;;;0.70;;
11767;SDS011;5941;57.652;12.514;2022-11-18T07:36:11;0.77;;;0.77;;
11767;SDS011;5941;57.652;12.514;2022-11-18T07:38:37;0.63;;;0.60;;
11767;SDS011;5941;57.652;12.514;2022-11-18T07:41:07;0.80;;;0.70;;
11767;SDS011;5941;57.652;12.514;2022-11-18T07:43:34;0.67;;;0.67;;
11767;SDS011;5941;57.652;12.514;2022-11-18T07:46:08;0.80;;;0.80;;
11767;SDS011;5941;57.652;12.514;2022-11-18T07:48:34;1.07;;;0.80;;
11767;SDS011;5941;57.652;12.514;2022-11-18T07:51:00;2.30;;;1.07;;
11767;SDS011;5941;57.652;12.514;2022-11-18T07:53:28;1.10;;;1.00;;
11767;SDS011;5941;57.652;12.514;2022-11-18T07:55:54;0.80;;;0.80;;
11767;SDS011;5941;57.652;12.514;2022-11-18T07:58:20;1.10;;;0.90;;
11767;SDS011;5941;57.652;12.514;2022-11-18T08:00:46;0.80;;;0.80;;
11767;SDS011;5941;57.652;12.514;2022-11-18T08:03:12;2.20;;;0.67;;
11767;SDS011;5941;57.652;12.514;2022-11-18T08:05:38;1.03;;;0.70;;
11767;SDS011;5941;57.652;12.514;2022-11-18T08:08:04;0.70;;;0.70;;
11767;SDS011;5941;57.652;12.514;2022-11-18T08:10:31;0.60;;;0.60;;
11767;SDS011;5941;57.652;12.514;2022-11-18T08:12:57;0.50;;;0.50;;
11767;SDS011;5941;57.652;12.514;2022-11-18T08:15:24;0.57;;;0.50;;
11767;SDS011;5941;57.652;12.514;2022-11-18T08:17:50;0.90;;;0.60;;
11767;SDS011;5941;57.652;12.514;2022-11-18T08:20:16;1.10;;;0.70;;
11767;SDS011;5941;57.652;12.514;2022-11-18T08:22:42;1.43;;;0.50;;
11767;SDS011;5941;57.652;12.514;2022-11-18T08:25:08;1.37;;;0.50;;
11767;SDS011;5941;57.652;12.514;2022-11-18T08:27:34;0.40;;;0.40;;
11767;SDS011;5941;57.652;12.514;2022-11-18T08:30:00;0.70;;;0.70;;
11767;SDS011;5941;57.652;12.514;2022-11-18T08:32:26;2.00;;;0.70;;
11767;SDS011;5941;57.652;12.514;2022-11-18T08:34:52;0.87;;;0.73;;
11767;SDS011;5941;57.652;12.514;2022-11-18T08:37:18;0.80;;;0.80;;
11767;SDS011;5941;57.652;12.514;2022-11-18T08:39:44;0.73;;;0.67;;
11767;SDS011;5941;57.652;12.514;2022-11-18T08:42:10;1.20;;;0.70;;
11767;SDS011;5941;57.652;12.514;2022-11-18T08:44:36;0.60;;;0.60;;
11767;SDS011;5941;57.652;12.514;2022-11-18T08:47:02;1.33;;;0.70;;
11767;SDS011;5941;57.652;12.514;2022-11-18T08:49:28;0.80;;;0.60;;
11767;SDS011;5941;57.652;12.514;2022-11-18T08:51:54;0.80;;;0.80;;
11767;SDS011;5941;57.652;12.514;2022-11-18T08:54:20;0.87;;;0.60;;
11767;SDS011;5941;57.652;12.514;2022-11-18T08:56:46;1.03;;;0.67;;
11767;SDS011;5941;57.652;12.514;2022-11-18T08:59:14;1.33;;;0.90;;
11767;SDS011;5941;57.652;12.514;2022-11-18T09:01:40;1.60;;;0.60;;
11767;SDS011;5941;57.652;12.514;2022-11-18T09:04:07;1.57;;;0.53;;
11767;SDS011;5941;57.652;12.514;2022-11-18T09:06:33;0.73;;;0.47;;
11767;SDS011;5941;57.652;12.514;2022-11-18T09:08:59;1.30;;;0.80;;
11767;SDS011;5941;57.652;12.514;2022-11-18T09:11:26;0.97;;;0.77;;
11767;SDS011;5941;57.652;12.514;2022-11-18T09:13:53;1.20;;;0.63;;
11767;SDS011;5941;57.652;12.514;2022-11-18T09:16:20;0.43;;;0.43;;
11767;SDS011;5941;57.652;12.514;2022-11-18T09:18:47;0.60;;;0.60;;
11767;SDS011;5941;57.652;12.514;2022-11-18T09:21:13;1.03;;;0.70;;
11767;SDS011;5941;57.652;12.514;2022-11-18T09:23:39;1.20;;;0.70;;
11767;SDS011;5941;57.652;12.514;2022-11-18T09:26:12;0.90;;;0.70;;
11767;SDS011;5941;57.652;12.514;2022-11-18T09:28:38;2.30;;;0.60;;
11767;SDS011;5941;57.652;12.514;2022-11-18T09:31:11;0.47;;;0.47;;
11767;SDS011;5941;57.652;12.514;2022-11-18T09:33:38;0.63;;;0.50;;
11767;SDS011;5941;57.652;12.514;2022-11-18T09:36:05;1.47;;;0.70;;
11767;SDS011;5941;57.652;12.514;2022-11-18T09:38:31;0.63;;;0.60;;
11767;SDS011;5941;57.652;12.514;2022-11-18T09:41:12;1.70;;;0.53;;
11767;SDS011;5941;57.652;12.514;2022-11-18T09:46:29;1.50;;;0.97;;
11767;SDS011;5941;57.652;12.514;2022-11-18T09:48:59;0.70;;;0.50;;
11767;SDS011;5941;57.652;12.514;2022-11-18T09:51:44;0.77;;;0.50;;
11767;SDS011;5941;57.652;12.514;2022-11-18T09:54:16;0.50;;;0.47;;
11767;SDS011;5941;57.652;12.514;2022-11-18T09:56:44;1.40;;;0.80;;
11767;SDS011;5941;57.652;12.514;2022-11-18T09:59:11;0.80;;;0.70;;
11767;SDS011;5941;57.652;12.514;2022-11-18T10:01:38;1.00;;;0.70;;
11767;SDS011;5941;57.652;12.514;2022-11-18T10:04:04;2.10;;;0.80;;
11767;SDS011;5941;57.652;12.514;2022-11-18T10:06:31;1.27;;;0.70;;
11767;SDS011;5941;57.652;12.514;2022-11-18T10:09:01;1.00;;;0.70;;
11767;SDS011;5941;57.652;12.514;2022-11-18T10:11:52;0.60;;;0.60;;
11767;SDS011;5941;57.652;12.514;2022-11-18T10:14:33;0.60;;;0.60;;
11767;SDS011;5941;57.652;12.514;2022-11-18T10:24:29;1.03;;;0.50;;
11767;SDS011;5941;57.652;12.514;2022-11-18T10:26:58;1.03;;;0.53;;
11767;SDS011;5941;57.652;12.514;2022-11-18T10:29:25;0.90;;;0.67;;
11767;SDS011;5941;57.652;12.514;2022-11-18T10:31:52;2.07;;;0.50;;
11767;SDS011;5941;57.652;12.514;2022-11-18T10:34:19;2.57;;;0.57;;
11767;SDS011;5941;57.652;12.514;2022-11-18T10:36:58;1.00;;;0.50;;
11767;SDS011;5941;57.652;12.514;2022-11-18T10:39:24;0.40;;;0.40;;
11767;SDS011;5941;57.652;12.514;2022-11-18T10:41:51;0.50;;;0.50;;
11767;SDS011;5941;57.652;12.514;2022-11-18T10:44:31;0.60;;;0.60;;
11767;SDS011;5941;57.652;12.514;2022-11-18T10:47:30;0.87;;;0.50;;
11767;SDS011;5941;57.652;12.514;2022-11-18T10:49:50;0.90;;;0.53;;
11767;SDS011;5941;57.652;12.514;2022-11-18T10:52:16;1.27;;;0.50;;
11767;SDS011;5941;57.652;12.514;2022-11-18T10:54:42;0.60;;;0.57;;
11767;SDS011;5941;57.652;12.514;2022-11-18T11:04:37;1.23;;;0.53;;
11767;SDS011;5941;57.652;12.514;2022-11-18T11:09:41;0.67;;;0.60;;
11767;SDS011;5941;57.652;12.514;2022-11-18T11:12:14;0.80;;;0.57;;
11767;SDS011;5941;57.652;12.514;2022-11-18T11:14:51;1.60;;;0.60;;
11767;SDS011;5941;57.652;12.514;2022-11-18T11:17:19;0.67;;;0.67;;
11767;SDS011;5941;57.652;12.514;2022-11-18T11:22:28;0.60;;;0.60;;
11767;SDS011;5941;57.652;12.514;2022-11-18T11:24:54;0.57;;;0.57;;
11767;SDS011;5941;57.652;12.514;2022-11-18T11:27:27;2.50;;;0.60;;
11767;SDS011;5941;57.652;12.514;2022-11-18T11:33:03;0.60;;;0.60;;
11767;SDS011;5941;57.652;12.514;2022-11-18T11:38:05;1.10;;;0.60;;
11767;SDS011;5941;57.652;12.514;2022-11-18T11:40:39;0.87;;;0.80;;
11767;SDS011;5941;57.652;12.514;2022-11-18T12:03:49;1.67;;;0.77;;
11767;SDS011;5941;57.652;12.514;2022-11-18T12:06:17;2.10;;;0.80;;
11767;SDS011;5941;57.652;12.514;2022-11-18T12:09:04;0.70;;;0.70;;
11767;SDS011;5941;57.652;12.514;2022-11-18T12:11:33;0.90;;;0.50;;
11767;SDS011;5941;57.652;12.514;2022-11-18T12:14:04;0.67;;;0.60;;
11767;SDS011;5941;57.652;12.514;2022-11-18T12:19:02;0.83;;;0.70;;
11767;SDS011;5941;57.652;12.514;2022-11-18T12:26:55;0.53;;;0.50;;
11767;SDS011;5941;57.652;12.514;2022-11-18T12:29:22;0.67;;;0.60;;
11767;SDS011;5941;57.652;12.514;2022-11-18T12:31:52;1.00;;;0.73;;
11767;SDS011;5941;57.652;12.514;2022-11-18T12:36:52;1.33;;;0.80;;
11767;SDS011;5941;57.652;12.514;2022-11-18T12:41:55;0.70;;;0.70;;
11767;SDS011;5941;57.652;12.514;2022-11-18T12:44:40;1.70;;;0.70;;
11767;SDS011;5941;57.652;12.514;2022-11-18T12:47:10;1.03;;;0.80;;
11767;SDS011;5941;57.652;12.514;2022-11-18T12:52:03;1.67;;;0.70;;
11767;SDS011;5941;57.652;12.514;2022-11-18T12:57:12;0.60;;;0.60;;
11767;SDS011;5941;57.652;12.514;2022-11-18T12:59:40;0.63;;;0.50;;
11767;SDS011;5941;57.652;12.514;2022-11-18T13:04:45;0.60;;;0.60;;
11767;SDS011;5941;57.652;12.514;2022-11-18T13:07:11;0.80;;;0.70;;
11767;SDS011;5941;57.652;12.514;2022-11-18T13:09:56;1.90;;;0.80;;
11767;SDS011;5941;57.652;12.514;2022-11-18T13:12:26;0.83;;;0.70;;
11767;SDS011;5941;57.652;12.514;2022-11-18T13:14:54;0.63;;;0.60;;
11767;SDS011;5941;57.652;12.514;2022-11-18T13:17:39;2.00;;;1.00;;
11767;SDS011;5941;57.652;12.514;2022-11-18T13:20:26;1.90;;;1.13;;
11767;SDS011;5941;57.652;12.514;2022-11-18T13:22:58;1.30;;;0.90;;
11767;SDS011;5941;57.652;12.514;2022-11-18T13:25:43;0.60;;;0.60;;
11767;SDS011;5941;57.652;12.514;2022-11-18T13:30:50;0.70;;;0.70;;
11767;SDS011;5941;57.652;12.514;2022-11-18T13:33:18;2.43;;;0.67;;
11767;SDS011;5941;57.652;12.514;2022-11-18T13:35:44;1.03;;;0.90;;
11767;SDS011;5941;57.652;12.514;2022-11-18T13:38:20;0.70;;;0.70;;
11767;SDS011;5941;57.652;12.514;2022-11-18T13:40:46;1.07;;;0.70;;
11767;SDS011;5941;57.652;12.514;2022-11-18T13:43:31;1.57;;;0.90;;
11767;SDS011;5941;57.652;12.514;2022-11-18T13:46:03;0.80;;;0.80;;
11767;SDS011;5941;57.652;12.514;2022-11-18T13:48:29;0.80;;;0.60;;
11767;SDS011;5941;57.652;12.514;2022-11-18T13:50:56;1.03;;;0.90;;
11767;SDS011;5941;57.652;12.514;2022-11-18T13:55:54;0.67;;;0.67;;
11767;SDS011;5941;57.652;12.514;2022-11-18T13:58:32;0.67;;;0.60;;
11767;SDS011;5941;57.652;12.514;2022-11-18T14:00:59;0.70;;;0.70;;
11767;SDS011;5941;57.652;12.514;2022-11-18T14:03:28;0.80;;;0.80;;
11767;SDS011;5941;57.652;12.514;2022-11-18T14:05:56;0.70;;;0.70;;
11767;SDS011;5941;57.652;12.514;2022-11-18T14:08:26;1.03;;;0.90;;
11767;SDS011;5941;57.652;12.514;2022-11-18T14:10:53;1.33;;;0.80;;
11767;SDS011;5941;57.652;12.514;2022-11-18T14:13:23;3.03;;;0.90;;
11767;SDS011;5941;57.652;12.514;2022-11-18T14:15:50;1.47;;;0.90;;
11767;SDS011;5941;57.652;12.514;2022-11-18T14:18:22;2.10;;;1.00;;
11767;SDS011;5941;57.652;12.514;2022-11-18T14:20:50;0.70;;;0.70;;
11767;SDS011;5941;57.652;12.514;2022-11-18T14:23:17;0.93;;;0.83;;
11767;SDS011;5941;57.652;12.514;2022-11-18T14:25:43;0.70;;;0.70;;
11767;SDS011;5941;57.652;12.514;2022-11-18T14:28:20;0.70;;;0.70;;
11767;SDS011;5941;57.652;12.514;2022-11-18T14:31:00;0.70;;;0.70;;
11767;SDS011;5941;57.652;12.514;2022-11-18T14:33:27;0.80;;;0.70;;
11767;SDS011;5941;57.652;12.514;2022-11-18T14:35:55;0.80;;;0.80;;
11767;SDS011;5941;57.652;12.514;2022-11-18T14:40:58;1.27;;;0.80;;
11767;SDS011;5941;57.652;12.514;2022-11-18T14:43:25;3.27;;;0.93;;
11767;SDS011;5941;57.652;12.514;2022-11-18T14:45:56;0.70;;;0.70;;
11767;SDS011;5941;57.652;12.514;2022-11-18T14:48:23;1.63;;;0.80;;
11767;SDS011;5941;57.652;12.514;2022-11-18T14:50:50;1.03;;;0.77;;
11767;SDS011;5941;57.652;12.514;2022-11-18T14:53:16;0.77;;;0.77;;
11767;SDS011;5941;57.652;12.514;2022-11-18T14:55:43;1.00;;;0.90;;
11767;SDS011;5941;57.652;12.514;2022-11-18T14:58:12;1.17;;;1.00;;
11767;SDS011;5941;57.652;12.514;2022-11-18T15:00:39;0.73;;;0.73;;
11767;SDS011;5941;57.652;12.514;2022-11-18T15:03:05;1.20;;;1.10;;
11767;SDS011;5941;57.652;12.514;2022-11-18T15:05:31;1.20;;;0.97;;
11767;SDS011;5941;57.652;12.514;2022-11-18T15:07:57;0.87;;;0.83;;
11767;SDS011;5941;57.652;12.514;2022-11-18T15:10:23;4.03;;;3.17;;
11767;SDS011;5941;57.652;12.514;2022-11-18T15:12:49;6.27;;;4.70;;
11767;SDS011;5941;57.652;12.514;2022-11-18T15:15:15;2.90;;;2.50;;
11767;SDS011;5941;57.652;12.514;2022-11-18T15:17:41;2.13;;;1.60;;
11767;SDS011;5941;57.652;12.514;2022-11-18T15:20:13;1.67;;;1.00;;
11767;SDS011;5941;57.652;12.514;2022-11-18T15:22:41;4.20;;;1.07;;
11767;SDS011;5941;57.652;12.514;2022-11-18T15:25:07;1.00;;;0.90;;
11767;SDS011;5941;57.652;12.514;2022-11-18T15:27:33;1.27;;;1.17;;
11767;SDS011;5941;57.652;12.514;2022-11-18T15:29:59;0.90;;;0.90;;
11767;SDS011;5941;57.652;12.514;2022-11-18T15:32:25;1.20;;;0.80;;
11767;SDS011;5941;57.652;12.514;2022-11-18T15:34:51;1.80;;;1.10;;
11767;SDS011;5941;57.652;12.514;2022-11-18T15:37:17;1.97;;;1.87;;
11767;SDS011;5941;57.652;12.514;2022-11-18T15:39:43;2.80;;;2.40;;
11767;SDS011;5941;57.652;12.514;2022-11-18T15:42:10;2.60;;;1.73;;
11767;SDS011;5941;57.652;12.514;2022-11-18T15:44:36;1.40;;;1.27;;
11767;SDS011;5941;57.652;12.514;2022-11-18T15:47:02;1.17;;;0.90;;
11767;SDS011;5941;57.652;12.514;2022-11-18T15:49:28;2.60;;;2.40;;
11767;SDS011;5941;57.652;12.514;2022-11-18T15:51:54;2.17;;;1.20;;
11767;SDS011;5941;57.652;12.514;2022-11-18T15:54:20;1.03;;;1.00;;
11767;SDS011;5941;57.652;12.514;2022-11-18T15:56:46;1.43;;;1.33;;
11767;SDS011;5941;57.652;12.514;2022-11-18T15:59:12;1.73;;;0.83;;
11767;SDS011;5941;57.652;12.514;2022-11-18T16:01:39;1.00;;;1.00;;
11767;SDS011;5941;57.652;12.514;2022-11-18T16:04:06;0.73;;;0.73;;
11767;SDS011;5941;57.652;12.514;2022-11-18T16:06:33;0.80;;;0.80;;
11767;SDS011;5941;57.652;12.514;2022-11-18T16:08:59;1.13;;;0.97;;
11767;SDS011;5941;57.652;12.514;2022-11-18T16:11:25;1.10;;;0.90;;
11767;SDS011;5941;57.652;12.514;2022-11-18T16:14:10;1.50;;;1.07;;
11767;SDS011;5941;57.652;12.514;2022-11-18T16:16:37;1.87;;;0.90;;
11767;SDS011;5941;57.652;12.514;2022-11-18T16:19:04;0.87;;;0.87;;
11767;SDS011;5941;57.652;12.514;2022-11-18T16:21:31;1.10;;;0.93;;
11767;SDS011;5941;57.652;12.514;2022-11-18T16:23:59;1.83;;;0.87;;
11767;SDS011;5941;57.652;12.514;2022-11-18T16:26:25;3.10;;;1.70;;
11767;SDS011;5941;57.652;12.514;2022-11-18T16:28:52;1.47;;;1.20;;
11767;SDS011;5941;57.652;12.514;2022-11-18T16:31:18;1.77;;;0.90;;
11767;SDS011;5941;57.652;12.514;2022-11-18T16:34:07;0.90;;;0.90;;
11767;SDS011;5941;57.652;12.514;2022-11-18T16:36:34;1.07;;;0.77;;